<?xml version="1.0" encoding="UTF-8" standalone="no" ?>
<gpx xmlns="http://www.topografix.com/GPX/1/1" xmlns:xsi="http://www.w3.org/2001/XMLSchema-instance" xsi:schemaLocation="http://www.topografix.com/GPX/1/1 http://www.topografix.com/GPX/1/1/gpx.xsd" version="1.1" creator="VisuGPX - https://www.visugpx.com">
  <metadata>
    <name>cascade de ballandraz 73</name>
    <desc><![CDATA[circuit balisé]]></desc>
  </metadata>
  <trk>
    <name><![CDATA[cascade de ballandraz 73_1]]></name>
    <extensions>
      <line xmlns="http://www.topografix.com/GPX/gpx_style/0/2">
        <color>0000FF</color>
        <width>4</width>
      </line>
    </extensions>
    <trkseg>
      <trkpt lat="45.44263" lon="6.68444">
        <ele>897</ele>
        <time>2022-06-03T15:11:49+02:00</time>
      </trkpt>
      <trkpt lat="45.44078" lon="6.68593">
        <ele>902</ele>
        <time>2022-06-03T15:16:43+02:00</time>
      </trkpt>
      <trkpt lat="45.43977" lon="6.68711">
        <ele>913</ele>
        <time>2022-06-03T15:21:06+02:00</time>
      </trkpt>
      <trkpt lat="45.43894" lon="6.68825">
        <ele>933</ele>
        <time>2022-06-03T15:26:44+02:00</time>
      </trkpt>
      <trkpt lat="45.43817" lon="6.68904">
        <ele>945</ele>
        <time>2022-06-03T15:30:36+02:00</time>
      </trkpt>
      <trkpt lat="45.43713" lon="6.69009">
        <ele>971</ele>
        <time>2022-06-03T15:37:30+02:00</time>
      </trkpt>
      <trkpt lat="45.43617" lon="6.69005">
        <ele>985</ele>
        <time>2022-06-03T15:41:43+02:00</time>
      </trkpt>
      <trkpt lat="45.43479" lon="6.69084">
        <ele>1056</ele>
        <time>2022-06-03T15:56:44+02:00</time>
      </trkpt>
      <trkpt lat="45.43547" lon="6.69125">
        <ele>1048</ele>
        <time>2022-06-03T15:58:09+02:00</time>
      </trkpt>
      <trkpt lat="45.4357" lon="6.69206">
        <ele>1067</ele>
        <time>2022-06-03T16:02:34+02:00</time>
      </trkpt>
      <trkpt lat="45.4348" lon="6.69192">
        <ele>1080</ele>
        <time>2022-06-03T16:06:31+02:00</time>
      </trkpt>
      <trkpt lat="45.43541" lon="6.69267">
        <ele>1089</ele>
        <time>2022-06-03T16:09:36+02:00</time>
      </trkpt>
      <trkpt lat="45.43552" lon="6.69416">
        <ele>1136</ele>
        <time>2022-06-03T16:19:40+02:00</time>
      </trkpt>
      <trkpt lat="45.43465" lon="6.69514">
        <ele>1178</ele>
        <time>2022-06-03T16:28:59+02:00</time>
      </trkpt>
      <trkpt lat="45.4338" lon="6.69581">
        <ele>1198</ele>
        <time>2022-06-03T16:34:16+02:00</time>
      </trkpt>
      <trkpt lat="45.43281" lon="6.69548">
        <ele>1208.5</ele>
      </trkpt>
      <trkpt lat="45.43241" lon="6.69498">
        <ele>1211.6</ele>
      </trkpt>
      <trkpt lat="45.43218" lon="6.69421">
        <ele>1201.1</ele>
      </trkpt>
      <trkpt lat="45.43145" lon="6.69416">
        <ele>1206.3</ele>
      </trkpt>
      <trkpt lat="45.4309" lon="6.69433">
        <ele>1200.5</ele>
      </trkpt>
      <trkpt lat="45.43068" lon="6.69473">
        <ele>1202.2</ele>
      </trkpt>
      <trkpt lat="45.43154" lon="6.69462">
        <ele>1221.1</ele>
      </trkpt>
      <trkpt lat="45.43132" lon="6.69577">
        <ele>1257</ele>
        <time>2022-06-03T16:50:17+02:00</time>
      </trkpt>
      <trkpt lat="45.43143" lon="6.6959">
        <ele>1264</ele>
      </trkpt>
      <trkpt lat="45.43122" lon="6.69622">
        <ele>1265.9</ele>
      </trkpt>
      <trkpt lat="45.43137" lon="6.69649">
        <ele>1279</ele>
      </trkpt>
      <trkpt lat="45.43129" lon="6.69692">
        <ele>1281</ele>
        <time>2022-06-03T16:53:34+02:00</time>
      </trkpt>
      <trkpt lat="45.43108" lon="6.69749">
        <ele>1301.3</ele>
      </trkpt>
      <trkpt lat="45.43116" lon="6.6978">
        <ele>1311.1</ele>
      </trkpt>
      <trkpt lat="45.43148" lon="6.69803">
        <ele>1326.5</ele>
      </trkpt>
      <trkpt lat="45.43093" lon="6.6978">
        <ele>1304.1</ele>
      </trkpt>
      <trkpt lat="45.43077" lon="6.69774">
        <ele>1298.4</ele>
      </trkpt>
      <trkpt lat="45.43064" lon="6.69798">
        <ele>1303.9</ele>
      </trkpt>
      <trkpt lat="45.42986" lon="6.69789">
        <ele>1291.6</ele>
      </trkpt>
      <trkpt lat="45.42945" lon="6.69828">
        <ele>1297.1</ele>
        <time>2022-06-03T17:03:36+02:00</time>
      </trkpt>
      <trkpt lat="45.42886" lon="6.69848">
        <ele>1293.4</ele>
      </trkpt>
      <trkpt lat="45.42831" lon="6.69837">
        <ele>1283.9</ele>
      </trkpt>
      <trkpt lat="45.42724" lon="6.69921">
        <ele>1274.6</ele>
      </trkpt>
      <trkpt lat="45.42706" lon="6.69916">
        <ele>1256</ele>
        <time>2022-06-03T17:07:35+02:00</time>
      </trkpt>
      <trkpt lat="45.42594" lon="6.69979">
        <ele>1258.5</ele>
        <time>2022-06-03T17:10:01+02:00</time>
      </trkpt>
      <trkpt lat="45.42555" lon="6.70021">
        <ele>1259.2</ele>
      </trkpt>
      <trkpt lat="45.42489" lon="6.70035">
        <ele>1254.3</ele>
        <time>2022-06-03T17:12:20+02:00</time>
      </trkpt>
      <trkpt lat="45.42427" lon="6.70091">
        <ele>1257.6</ele>
      </trkpt>
      <trkpt lat="45.42354" lon="6.7018">
        <ele>1253.9</ele>
        <time>2022-06-03T17:18:17+02:00</time>
      </trkpt>
      <trkpt lat="45.42298" lon="6.70234">
        <ele>1248.1</ele>
        <time>2022-06-03T17:22:28+02:00</time>
      </trkpt>
      <trkpt lat="45.42246" lon="6.70268">
        <ele>1239</ele>
        <time>2022-06-03T17:23:27+02:00</time>
      </trkpt>
      <trkpt lat="45.42233" lon="6.70231">
        <ele>1227</ele>
        <time>2022-06-03T17:24:00+02:00</time>
      </trkpt>
      <trkpt lat="45.42229" lon="6.7021">
        <ele>1226.8</ele>
        <time>2022-06-03T17:25:10+02:00</time>
      </trkpt>
      <trkpt lat="45.42242" lon="6.70201">
        <ele>1222.3</ele>
        <time>2022-06-03T17:26:18+02:00</time>
      </trkpt>
      <trkpt lat="45.42262" lon="6.7022">
        <ele>1232</ele>
        <time>2022-06-03T17:27:00+02:00</time>
      </trkpt>
      <trkpt lat="45.42267" lon="6.70183">
        <ele>1221.8</ele>
        <time>2022-06-03T17:28:18+02:00</time>
      </trkpt>
      <trkpt lat="45.42259" lon="6.70165">
        <ele>1212.3</ele>
      </trkpt>
      <trkpt lat="45.42296" lon="6.70116">
        <ele>1213.2</ele>
      </trkpt>
      <trkpt lat="45.42261" lon="6.70123">
        <ele>1200</ele>
        <time>2022-06-03T17:29:18+02:00</time>
      </trkpt>
      <trkpt lat="45.42315" lon="6.70008">
        <ele>1179.5</ele>
        <time>2022-06-03T17:32:07+02:00</time>
      </trkpt>
      <trkpt lat="45.42331" lon="6.69963">
        <ele>1169.1</ele>
      </trkpt>
      <trkpt lat="45.42302" lon="6.69985">
        <ele>1165.3</ele>
        <time>2022-06-03T17:32:37+02:00</time>
      </trkpt>
      <trkpt lat="45.42323" lon="6.69927">
        <ele>1154.8</ele>
        <time>2022-06-03T17:33:30+02:00</time>
      </trkpt>
      <trkpt lat="45.4234" lon="6.69899">
        <ele>1145</ele>
        <time>2022-06-03T17:35:03+02:00</time>
      </trkpt>
      <trkpt lat="45.42383" lon="6.69835">
        <ele>1140</ele>
        <time>2022-06-03T17:36:14+02:00</time>
      </trkpt>
      <trkpt lat="45.42406" lon="6.69798">
        <ele>1138</ele>
        <time>2022-06-03T17:36:54+02:00</time>
      </trkpt>
      <trkpt lat="45.42396" lon="6.69783">
        <ele>1145.9</ele>
        <time>2022-06-03T17:37:21+02:00</time>
      </trkpt>
      <trkpt lat="45.4242" lon="6.69755">
        <ele>1136.8</ele>
      </trkpt>
      <trkpt lat="45.42463" lon="6.69738">
        <ele>1135.4</ele>
        <time>2022-06-03T17:38:43+02:00</time>
      </trkpt>
      <trkpt lat="45.42468" lon="6.69731">
        <ele>1133.9</ele>
      </trkpt>
      <trkpt lat="45.42465" lon="6.69719">
        <ele>1130.8</ele>
      </trkpt>
      <trkpt lat="45.4247" lon="6.69708">
        <ele>1129.4</ele>
        <time>2022-06-03T17:39:17+02:00</time>
      </trkpt>
      <trkpt lat="45.42463" lon="6.69686">
        <ele>1131</ele>
        <time>2022-06-03T17:39:54+02:00</time>
      </trkpt>
      <trkpt lat="45.42466" lon="6.69675">
        <ele>1130.7</ele>
      </trkpt>
      <trkpt lat="45.42504" lon="6.69648">
        <ele>1128.3</ele>
      </trkpt>
      <trkpt lat="45.42524" lon="6.69627">
        <ele>1127.9</ele>
        <time>2022-06-03T17:41:54+02:00</time>
      </trkpt>
      <trkpt lat="45.42549" lon="6.69609">
        <ele>1126</ele>
      </trkpt>
      <trkpt lat="45.42576" lon="6.69568">
        <ele>1124</ele>
        <time>2022-06-03T17:42:48+02:00</time>
      </trkpt>
      <trkpt lat="45.42603" lon="6.69549">
        <ele>1122.7</ele>
      </trkpt>
      <trkpt lat="45.42621" lon="6.69544">
        <ele>1122</ele>
      </trkpt>
      <trkpt lat="45.42638" lon="6.69529">
        <ele>1122</ele>
        <time>2022-06-03T17:43:56+02:00</time>
      </trkpt>
      <trkpt lat="45.42684" lon="6.69459">
        <ele>1122</ele>
        <time>2022-06-03T17:45:35+02:00</time>
      </trkpt>
      <trkpt lat="45.42693" lon="6.69427">
        <ele>1120.4</ele>
      </trkpt>
      <trkpt lat="45.42749" lon="6.69368">
        <ele>1120.4</ele>
        <time>2022-06-03T17:47:10+02:00</time>
      </trkpt>
      <trkpt lat="45.42779" lon="6.69359">
        <ele>1119.5</ele>
      </trkpt>
      <trkpt lat="45.42803" lon="6.69317">
        <ele>1122.6</ele>
        <time>2022-06-03T17:51:44+02:00</time>
      </trkpt>
      <trkpt lat="45.42842" lon="6.69261">
        <ele>1129.9</ele>
      </trkpt>
      <trkpt lat="45.42876" lon="6.69248">
        <ele>1126.4</ele>
      </trkpt>
      <trkpt lat="45.42929" lon="6.69217">
        <ele>1126.7</ele>
      </trkpt>
      <trkpt lat="45.42974" lon="6.69169">
        <ele>1136.8</ele>
        <time>2022-06-03T18:00:07+02:00</time>
      </trkpt>
      <trkpt lat="45.43041" lon="6.69154">
        <ele>1124.9</ele>
        <time>2022-06-03T18:03:36+02:00</time>
      </trkpt>
      <trkpt lat="45.43099" lon="6.6908">
        <ele>1124.8</ele>
        <time>2022-06-03T18:06:12+02:00</time>
      </trkpt>
      <trkpt lat="45.43142" lon="6.69041">
        <ele>1123.9</ele>
        <time>2022-06-03T18:07:54+02:00</time>
      </trkpt>
      <trkpt lat="45.43187" lon="6.69019">
        <ele>1128.1</ele>
        <time>2022-06-03T18:11:40+02:00</time>
      </trkpt>
      <trkpt lat="45.43212" lon="6.68978">
        <ele>1136</ele>
      </trkpt>
      <trkpt lat="45.43224" lon="6.68982">
        <ele>1132.9</ele>
      </trkpt>
      <trkpt lat="45.43261" lon="6.6902">
        <ele>1137.8</ele>
      </trkpt>
      <trkpt lat="45.43291" lon="6.69019">
        <ele>1143.9</ele>
        <time>2022-06-03T18:12:54+02:00</time>
      </trkpt>
      <trkpt lat="45.43302" lon="6.69052">
        <ele>1139.9</ele>
      </trkpt>
      <trkpt lat="45.43319" lon="6.69069">
        <ele>1138.5</ele>
        <time>2022-06-03T18:20:43+02:00</time>
      </trkpt>
      <trkpt lat="45.4334" lon="6.6906">
        <ele>1138.1</ele>
      </trkpt>
      <trkpt lat="45.43352" lon="6.69037">
        <ele>1137.7</ele>
      </trkpt>
      <trkpt lat="45.43372" lon="6.68967">
        <ele>1138.7</ele>
      </trkpt>
      <trkpt lat="45.43458" lon="6.68894">
        <ele>1134.6</ele>
        <time>2022-06-03T18:23:04+02:00</time>
      </trkpt>
      <trkpt lat="45.43489" lon="6.68831">
        <ele>1126.5</ele>
      </trkpt>
      <trkpt lat="45.43491" lon="6.68801">
        <ele>1124</ele>
      </trkpt>
      <trkpt lat="45.43475" lon="6.68768">
        <ele>1119.8</ele>
        <time>2022-06-03T18:25:33+02:00</time>
      </trkpt>
      <trkpt lat="45.43458" lon="6.68762">
        <ele>1122</ele>
      </trkpt>
      <trkpt lat="45.43442" lon="6.68735">
        <ele>1120</ele>
      </trkpt>
      <trkpt lat="45.43462" lon="6.68665">
        <ele>1115.4</ele>
      </trkpt>
      <trkpt lat="45.4349" lon="6.68657">
        <ele>1107.8</ele>
      </trkpt>
      <trkpt lat="45.4353" lon="6.68668">
        <ele>1092.8</ele>
      </trkpt>
      <trkpt lat="45.43591" lon="6.68648">
        <ele>1084.2</ele>
        <time>2022-06-03T18:27:39+02:00</time>
      </trkpt>
      <trkpt lat="45.43685" lon="6.68589">
        <ele>1064.9</ele>
        <time>2022-06-03T18:29:44+02:00</time>
      </trkpt>
      <trkpt lat="45.43721" lon="6.68549">
        <ele>1065.4</ele>
        <time>2022-06-03T18:31:23+02:00</time>
      </trkpt>
      <trkpt lat="45.4374" lon="6.685">
        <ele>1074.2</ele>
      </trkpt>
      <trkpt lat="45.43798" lon="6.68511">
        <ele>1045.6</ele>
      </trkpt>
      <trkpt lat="45.43821" lon="6.68503">
        <ele>1033.5</ele>
      </trkpt>
      <trkpt lat="45.43836" lon="6.68432">
        <ele>1028.2</ele>
      </trkpt>
      <trkpt lat="45.43888" lon="6.68291">
        <ele>1009.2</ele>
        <time>2022-06-03T18:35:22+02:00</time>
      </trkpt>
      <trkpt lat="45.43897" lon="6.68248">
        <ele>1006.1</ele>
        <time>2022-06-03T18:37:55+02:00</time>
      </trkpt>
      <trkpt lat="45.43973" lon="6.68282">
        <ele>980.3</ele>
      </trkpt>
      <trkpt lat="45.4405" lon="6.68344">
        <ele>959.1</ele>
      </trkpt>
      <trkpt lat="45.44062" lon="6.68452">
        <ele>938.9</ele>
      </trkpt>
      <trkpt lat="45.44086" lon="6.68439">
        <ele>926</ele>
        <time>2022-06-03T18:39:36+02:00</time>
      </trkpt>
      <trkpt lat="45.44122" lon="6.68385">
        <ele>921.1</ele>
      </trkpt>
      <trkpt lat="45.44179" lon="6.68338">
        <ele>909</ele>
        <time>2022-06-03T18:41:35+02:00</time>
      </trkpt>
      <trkpt lat="45.44213" lon="6.68401">
        <ele>895</ele>
        <time>2022-06-03T18:42:39+02:00</time>
      </trkpt>
      <trkpt lat="45.44272" lon="6.68436">
        <ele>896</ele>
        <time>2022-06-03T18:44:02+02:00</time>
      </trkpt>
    </trkseg>
  </trk>
</gpx>